METAR AND TAF INFORMATION
METAR FOR LFLP
ADDS - METARS form results

(0118 UTC 23 October 2018)
Data provider http://aviationweather.gov/metar/data/
 
METAR text: LFLP 230100Z AUTO 00000KT CAVOK 04/02 Q1028
Conditions at: LFLP (ANNECY/MEYTHET , FR) observed 0100 UTC 23 October 2018
Temperature: 4.0°C (39°F)
Dewpoint: 2.0°C (36°F) [RH = 87%]
Pressure (altimeter): 30.35 inches Hg (1028.0 mb)
Winds: calm
Visibility: 6 or more miles (10+ km)
Ceiling: ceiling and visibility are OK
Clouds: unknown
Weather: no significant weather observed at this time

METAR text: LFLP 230030Z AUTO VRB03KT CAVOK 05/02 Q1028
Conditions at: LFLP (ANNECY/MEYTHET , FR) observed 0030 UTC 23 October 2018
Temperature: 5.0°C (41°F)
Dewpoint: 2.0°C (36°F) [RH = 81%]
Pressure (altimeter): 30.35 inches Hg (1028.0 mb)
Winds: variable direction winds at 3 MPH (3 knots; 1.5 m/s)
Visibility: 6 or more miles (10+ km)
Ceiling: ceiling and visibility are OK
Clouds: unknown
Weather: no significant weather observed at this time

Forecast for: LFLP (ANNECY/MEYTHET , FR)
Text: TAF LFLP 221400Z 2215/2315 03010KT CAVOK
Forecast period: 1500 to 2200 UTC 22 October 2018
Forecast type: FROM: standard forecast or significant change
Winds: from the NNE (30 degrees) at 12 MPH (10 knots; 5.1 m/s)
Visibility: 6 or more miles 10+ km)
Ceiling: unknown
Clouds: missing
Weather: NSW  (no significant weather)
Text: BECMG 2222/2224 VRB03KT
Forecast period: 2200 UTC 22 October 2018 to 1100 UTC 23 October 2018
Forecast type: BECOMING: Conditions expected to become as follows by 0000 UTC 23 October 2018
Winds: variable direction winds at 3 MPH (3 knots; 1.5 m/s)
Visibility: 6 or more miles 10+ km)
Ceiling: unknown
Clouds: missing
Weather: NSW  (no significant weather)
Text: PROB40
Forecast period: 0000 to 1000 UTC 23 October 2018
Forecast type: TEMPORARY: The following changes expected for less than half the time period
Visibility: 3 miles (5 km)
Ceiling: 1200 feet AGL
Clouds: broken clouds at 1200 feet AGL
Weather: BR  (mist)
Text: TEMPO 2300/2310 5000 BR BKN012
Forecast period: 1100 to 1500 UTC 23 October 2018
Forecast type: BECOMING: Conditions expected to become as follows by 1300 UTC 23 October 2018
Winds: from the NNE (20 degrees) at 12 MPH (10 knots; 5.1 m/s)
Visibility: 6 or more miles 10+ km)
Ceiling: unknown
Clouds: missing
Weather: NSW  (no significant weather)

 AIRPORT MAP

 RUNWAY INFORMATION
Runway 04 Runway length 5348 ft Runway width 98 ft
Runway elevation 1489 ft Runway displaced threshold 820 ft Runway heading 39
Runway 22 Runway length 5348 ft Runway width 98 ft
Runway elevation 1516 ft Runway displaced threshold 755 ft Runway heading 219

 AIRPORT FREQUENCIES
Type AFIS Name INFO Frequency 118.2 MHZ
Type APP Name CHAMBERY A Frequency 123.7 MHZ
Type TWR Name ANNECY TWR Frequency 118.2 MHZ

 AIRPORT NEAR NAVIGATION AIDS



Powered by Virtual Airlines Manager [v2.6.2]